King of Scandinavia — OVOL2 — position and weather

sailwx.info

Track history (hours):
 
Tides and Currents Weather Stations Pressure Air Temp Water Temp Dewpoint Dewpoint Depression Visibility Wind Speed Wind Dir Waves Ship Positions

King of Scandinavia

Ship's website: http://www.dfds.co.uk/DSW/EN/OnBoard/na/KING.htm

Last reported at 2014-Nov-23 03:33 UTC. Time now 2014-Nov-23 03:40 UTC.
Position N 54°09' E 000°54'.

Length 166 m; beam 27.6 m; draft 6.2 m.

Type: Passenger vessel. MMSI: 220449000.

Date/timePositionNaut miles runAvg speedWind from/ knotsBaromVisibWave heightAir tempDewpointWater temp
2014-Nov-23 03:33N 54°09' E 000°54'15015.0
2014-Nov-22 17:33N 52°38' E 004°14'1514.8
2014-Nov-22 16:33N 52°28' E 004°32'2 2.0
2014-Nov-22 15:33N 52°28' E 004°35'0 0.0
2014-Nov-22 14:33N 52°28' E 004°35'0 0.0
2014-Nov-22 13:33N 52°28' E 004°35'0 0.0
2014-Nov-22 12:33N 52°28' E 004°35'0 0.0
2014-Nov-22 11:33N 52°28' E 004°35'0 0.0
2014-Nov-22 10:33N 52°28' E 004°35'0 0.0
2014-Nov-22 09:33N 52°28' E 004°35'0 0.2
2014-Nov-22 08:33N 52°28' E 004°35'1414.2
2014-Nov-22 07:33N 52°36' E 004°16'1717.2
2014-Nov-22 06:33N 52°48' E 003°54'1616.7
2014-Nov-22 05:33N 52°58' E 003°33'7617.2
2014-Nov-22 01:08N 53°46' E 001°54'5016.7
2014-Nov-21 22:07N 54°13' E 000°42'1016.9
2014-Nov-21 21:33N 54°19' E 000°28'1717.0
2014-Nov-21 20:33N 54°28' E 000°04'1717.2
2014-Nov-21 19:33N 54°37' W 000°21'1817.5
2014-Nov-21 18:33N 54°47' W 000°47'1817.9
2014-Nov-21 17:33N 54°57' W 001°13'2 0.2
2014-Nov-21 08:15N 54°56' W 001°10'1318.7
2014-Nov-21 07:33N 54°49' W 000°51'1918.7
2014-Nov-21 06:33N 54°39' W 000°24'1818.4
2014-Nov-21 05:33N 54°29' E 000°03'1817.7
2014-Nov-21 04:33N 54°19' E 000°28'14415.8
2014-Nov-20 19:25N 52°54' E 003°44'1314.6
2014-Nov-20 18:32N 52°45' E 003°59'1515.0
2014-Nov-20 17:33N 52°35' E 004°18'1312.9
2014-Nov-20 16:33N 52°28' E 004°35'0 0.0
2014-Nov-20 15:31N 52°28' E 004°35'0 0.0
2014-Nov-20 14:31N 52°28' E 004°35'0 0.0
2014-Nov-20 13:31N 52°28' E 004°35'0 0.0
2014-Nov-20 12:31N 52°28' E 004°35'0 0.0
2014-Nov-20 11:31N 52°28' E 004°35'0 0.0
2014-Nov-20 10:31N 52°28' E 004°35'0 0.0
2014-Nov-20 09:31N 52°28' E 004°35'4 4.2
2014-Nov-20 08:34N 52°29' E 004°29'1515.1
2014-Nov-20 07:33N 52°40' E 004°11'15317.0
2014-Nov-19 22:33N 54°11' E 000°47'1716.9
2014-Nov-19 21:34N 54°21' E 000°22'1716.6
2014-Nov-19 20:34N 54°30' W 000°01'1616.4
2014-Nov-19 19:34N 54°39' W 000°25'1616.3
2014-Nov-19 18:33N 54°48' W 000°49'1716.5
2014-Nov-19 17:32N 54°57' W 001°13'4 0.4
2014-Nov-19 08:08N 54°55' W 001°07'1017.7
2014-Nov-19 07:33N 54°50' W 000°53'1818.2
2014-Nov-19 06:34N 54°40' W 000°26'1918.5
2014-Nov-19 05:33N 54°30' E 000°01'1818.1
2014-Nov-19 04:34N 54°20' E 000°26'1817.6
2014-Nov-19 03:33N 54°10' E 000°52'15415.4
2014-Nov-18 17:33N 52°36' E 004°17'1313.5
2014-Nov-18 16:33N 52°28' E 004°35'0 0.3
2014-Nov-18 15:29N 52°28' E 004°35'0 0.0
2014-Nov-18 14:32N 52°28' E 004°35'0 0.0
2014-Nov-18 13:32N 52°28' E 004°35'0 0.0
2014-Nov-18 12:32N 52°28' E 004°35'0 0.0
2014-Nov-18 11:32N 52°28' E 004°35'0 0.0
2014-Nov-18 10:32N 52°28' E 004°35'0 0.0
2014-Nov-18 09:32N 52°28' E 004°35'5 5.1
2014-Nov-18 08:33N 52°29' E 004°27'16616.5
2014-Nov-17 22:31N 54°11' E 000°48'1717.2
2014-Nov-17 21:33N 54°21' E 000°25'1717.0
2014-Nov-17 20:33N 54°29' W 000°00'1817.8
2014-Nov-17 19:33N 54°39' W 000°26'1918.4
2014-Nov-17 18:33N 54°50' W 000°52'1717.1
2014-Nov-17 17:33N 54°59' W 001°18'35 3.2
2014-Nov-17 06:28N 54°40' W 000°27'1618.1
2014-Nov-17 05:34N 54°31' W 000°03'1818.0
2014-Nov-17 04:34N 54°21' E 000°23'17215.6
2014-Nov-16 17:33N 52°38' E 004°13'1414.0
2014-Nov-16 16:34N 52°29' E 004°30'3 3.0
2014-Nov-16 15:31N 52°28' E 004°35'0 0.0
2014-Nov-16 14:31N 52°28' E 004°35'0 0.0
2014-Nov-16 13:31N 52°28' E 004°35'0 0.0
2014-Nov-16 12:31N 52°28' E 004°35'0 0.0
2014-Nov-16 11:31N 52°28' E 004°35'0 0.0
2014-Nov-16 10:31N 52°28' E 004°35'0 0.0
2014-Nov-16 09:31N 52°28' E 004°35'0 0.5
2014-Nov-16 08:34N 52°28' E 004°34'1413.9
2014-Nov-16 07:33N 52°37' E 004°17'15817.3
2014-Nov-15 22:26N 54°12' E 000°45'1618.4
2014-Nov-15 21:33N 54°21' E 000°22'1818.3
2014-Nov-15 20:34N 54°31' W 000°04'1817.9
2014-Nov-15 19:33N 54°40' W 000°31'3517.6
2014-Nov-15 17:33N 54°60' W 001°22'40 3.6
2014-Nov-15 06:33N 54°38' W 000°23'1818.0
2014-Nov-15 05:33N 54°28' E 000°03'1818.1
2014-Nov-15 04:33N 54°19' E 000°29'1616.0
2014-Nov-15 03:33N 54°10' E 000°52'1615.6
2014-Nov-15 02:33N 54°02' E 001°15'12015.0
2014-Nov-14 18:33N 52°49' E 003°54'1515.4
2014-Nov-14 17:33N 52°38' E 004°13'1616.1
2014-Nov-14 16:33N 52°28' E 004°33'1 1.2
2014-Nov-14 15:32N 52°28' E 004°35'0 0.0
2014-Nov-14 14:32N 52°28' E 004°35'0 0.0
2014-Nov-14 12:32N 52°28' E 004°35'0 0.0
2014-Nov-14 11:32N 52°28' E 004°35'0 0.0
2014-Nov-14 10:32N 52°28' E 004°35'0 0.0
2014-Nov-14 09:32N 52°28' E 004°35'0 0.2
2014-Nov-14 08:33N 52°28' E 004°35'1312.8
2014-Nov-14 07:33N 52°35' E 004°18'1817.6
2014-Nov-14 06:33N 52°48' E 003°58'14216.8
2014-Nov-13 22:06N 54°12' E 000°46'1018.7
2014-Nov-13 21:33N 54°18' E 000°31'1918.6
2014-Nov-13 20:33N 54°28' E 000°04'1818.4
2014-Nov-13 19:33N 54°38' W 000°22'4018.8
2014-Nov-13 17:27N 54°59' W 001°19'8 0.9
2014-Nov-13 08:05N 54°55' W 001°07'2814.5
2014-Nov-13 06:10N 54°40' W 000°26'914.9
2014-Nov-13 05:33N 54°35' W 000°13'1515.2
2014-Nov-13 04:33N 54°27' E 000°08'  
Track history (hours):
 
Tides and Currents Weather Stations Pressure Air Temp Water Temp Dewpoint Dewpoint Depression Visibility Wind Speed Wind Dir Waves Ship Positions

King of Scandinavia

Ship's website: http://www.dfds.co.uk/DSW/EN/OnBoard/na/KING.htm

Last reported at 2014-Nov-23 03:33 UTC. Time now 2014-Nov-23 03:40 UTC.
Position N 54°09' E 000°54'.

Length 166 m; beam 27.6 m; draft 6.2 m.

Type: Passenger vessel. MMSI: 220449000.

Date/timePositionNaut miles runAvg speedWind from/ knotsBaromVisibWave heightAir tempDewpointWater temp
2014-Nov-23 03:33N 54°09' E 000°54'15015.0
2014-Nov-22 17:33N 52°38' E 004°14'1514.8
2014-Nov-22 16:33N 52°28' E 004°32'2 2.0
2014-Nov-22 15:33N 52°28' E 004°35'0 0.0
2014-Nov-22 14:33N 52°28' E 004°35'0 0.0
2014-Nov-22 13:33N 52°28' E 004°35'0 0.0
2014-Nov-22 12:33N 52°28' E 004°35'0 0.0
2014-Nov-22 11:33N 52°28' E 004°35'0 0.0
2014-Nov-22 10:33N 52°28' E 004°35'0 0.0
2014-Nov-22 09:33N 52°28' E 004°35'0 0.2
2014-Nov-22 08:33N 52°28' E 004°35'1414.2
2014-Nov-22 07:33N 52°36' E 004°16'1717.2
2014-Nov-22 06:33N 52°48' E 003°54'1616.7
2014-Nov-22 05:33N 52°58' E 003°33'7617.2
2014-Nov-22 01:08N 53°46' E 001°54'5016.7
2014-Nov-21 22:07N 54°13' E 000°42'1016.9
2014-Nov-21 21:33N 54°19' E 000°28'1717.0
2014-Nov-21 20:33N 54°28' E 000°04'1717.2
2014-Nov-21 19:33N 54°37' W 000°21'1817.5
2014-Nov-21 18:33N 54°47' W 000°47'1817.9
2014-Nov-21 17:33N 54°57' W 001°13'2 0.2
2014-Nov-21 08:15N 54°56' W 001°10'1318.7
2014-Nov-21 07:33N 54°49' W 000°51'1918.7
2014-Nov-21 06:33N 54°39' W 000°24'1818.4
2014-Nov-21 05:33N 54°29' E 000°03'1817.7
2014-Nov-21 04:33N 54°19' E 000°28'14415.8
2014-Nov-20 19:25N 52°54' E 003°44'1314.6
2014-Nov-20 18:32N 52°45' E 003°59'1515.0
2014-Nov-20 17:33N 52°35' E 004°18'1312.9
2014-Nov-20 16:33N 52°28' E 004°35'0 0.0
2014-Nov-20 15:31N 52°28' E 004°35'0 0.0
2014-Nov-20 14:31N 52°28' E 004°35'0 0.0
2014-Nov-20 13:31N 52°28' E 004°35'0 0.0
2014-Nov-20 12:31N 52°28' E 004°35'0 0.0
2014-Nov-20 11:31N 52°28' E 004°35'0 0.0
2014-Nov-20 10:31N 52°28' E 004°35'0 0.0
2014-Nov-20 09:31N 52°28' E 004°35'4 4.2
2014-Nov-20 08:34N 52°29' E 004°29'1515.1
2014-Nov-20 07:33N 52°40' E 004°11'15317.0
2014-Nov-19 22:33N 54°11' E 000°47'1716.9
2014-Nov-19 21:34N 54°21' E 000°22'1716.6
2014-Nov-19 20:34N 54°30' W 000°01'1616.4
2014-Nov-19 19:34N 54°39' W 000°25'1616.3
2014-Nov-19 18:33N 54°48' W 000°49'1716.5
2014-Nov-19 17:32N 54°57' W 001°13'4 0.4
2014-Nov-19 08:08N 54°55' W 001°07'1017.7
2014-Nov-19 07:33N 54°50' W 000°53'1818.2
2014-Nov-19 06:34N 54°40' W 000°26'1918.5
2014-Nov-19 05:33N 54°30' E 000°01'1818.1
2014-Nov-19 04:34N 54°20' E 000°26'1817.6
2014-Nov-19 03:33N 54°10' E 000°52'15415.4
2014-Nov-18 17:33N 52°36' E 004°17'1313.5
2014-Nov-18 16:33N 52°28' E 004°35'0 0.3
2014-Nov-18 15:29N 52°28' E 004°35'0 0.0
2014-Nov-18 14:32N 52°28' E 004°35'0 0.0
2014-Nov-18 13:32N 52°28' E 004°35'0 0.0
2014-Nov-18 12:32N 52°28' E 004°35'0 0.0
2014-Nov-18 11:32N 52°28' E 004°35'0 0.0
2014-Nov-18 10:32N 52°28' E 004°35'0 0.0
2014-Nov-18 09:32N 52°28' E 004°35'5 5.1
2014-Nov-18 08:33N 52°29' E 004°27'16616.5
2014-Nov-17 22:31N 54°11' E 000°48'1717.2
2014-Nov-17 21:33N 54°21' E 000°25'1717.0
2014-Nov-17 20:33N 54°29' W 000°00'1817.8
2014-Nov-17 19:33N 54°39' W 000°26'1918.4
2014-Nov-17 18:33N 54°50' W 000°52'1717.1
2014-Nov-17 17:33N 54°59' W 001°18'35 3.2
2014-Nov-17 06:28N 54°40' W 000°27'1618.1
2014-Nov-17 05:34N 54°31' W 000°03'1818.0
2014-Nov-17 04:34N 54°21' E 000°23'17215.6
2014-Nov-16 17:33N 52°38' E 004°13'1414.0
2014-Nov-16 16:34N 52°29' E 004°30'3 3.0
2014-Nov-16 15:31N 52°28' E 004°35'0 0.0
2014-Nov-16 14:31N 52°28' E 004°35'0 0.0
2014-Nov-16 13:31N 52°28' E 004°35'0 0.0
2014-Nov-16 12:31N 52°28' E 004°35'0 0.0
2014-Nov-16 11:31N 52°28' E 004°35'0 0.0
2014-Nov-16 10:31N 52°28' E 004°35'0 0.0
2014-Nov-16 09:31N 52°28' E 004°35'0 0.5
2014-Nov-16 08:34N 52°28' E 004°34'1413.9
2014-Nov-16 07:33N 52°37' E 004°17'15817.3
2014-Nov-15 22:26N 54°12' E 000°45'1618.4
2014-Nov-15 21:33N 54°21' E 000°22'1818.3
2014-Nov-15 20:34N 54°31' W 000°04'1817.9
2014-Nov-15 19:33N 54°40' W 000°31'3517.6
2014-Nov-15 17:33N 54°60' W 001°22'40 3.6
2014-Nov-15 06:33N 54°38' W 000°23'1818.0
2014-Nov-15 05:33N 54°28' E 000°03'1818.1
2014-Nov-15 04:33N 54°19' E 000°29'1616.0
2014-Nov-15 03:33N 54°10' E 000°52'1615.6
2014-Nov-15 02:33N 54°02' E 001°15'12015.0
2014-Nov-14 18:33N 52°49' E 003°54'1515.4
2014-Nov-14 17:33N 52°38' E 004°13'1616.1
2014-Nov-14 16:33N 52°28' E 004°33'1 1.2
2014-Nov-14 15:32N 52°28' E 004°35'0 0.0
2014-Nov-14 14:32N 52°28' E 004°35'0 0.0
2014-Nov-14 12:32N 52°28' E 004°35'0 0.0
2014-Nov-14 11:32N 52°28' E 004°35'0 0.0
2014-Nov-14 10:32N 52°28' E 004°35'0 0.0
2014-Nov-14 09:32N 52°28' E 004°35'0 0.2
2014-Nov-14 08:33N 52°28' E 004°35'1312.8
2014-Nov-14 07:33N 52°35' E 004°18'1817.6
2014-Nov-14 06:33N 52°48' E 003°58'14216.8
2014-Nov-13 22:06N 54°12' E 000°46'1018.7
2014-Nov-13 21:33N 54°18' E 000°31'1918.6
2014-Nov-13 20:33N 54°28' E 000°04'1818.4
2014-Nov-13 19:33N 54°38' W 000°22'4018.8
2014-Nov-13 17:27N 54°59' W 001°19'8 0.9
2014-Nov-13 08:05N 54°55' W 001°07'2814.5
2014-Nov-13 06:10N 54°40' W 000°26'914.9
2014-Nov-13 05:33N 54°35' W 000°13'1515.2
2014-Nov-13 04:33N 54°27' E 000°08'  

Dump ship's entire track history